sensor_id;sensor_type;location;lat;lon;timestamp;temperature;humidity
39957;DHT22;48483;44.640;7.494;2024-02-23T00:01:40;10.20;99.90
39957;DHT22;48483;44.640;7.494;2024-02-23T00:04:06;10.20;99.90
39957;DHT22;48483;44.640;7.494;2024-02-23T00:06:34;10.20;99.90
39957;DHT22;48483;44.640;7.494;2024-02-23T00:09:00;10.20;99.90
39957;DHT22;48483;44.640;7.494;2024-02-23T00:11:27;10.20;99.90
39957;DHT22;48483;44.640;7.494;2024-02-23T00:13:54;10.20;99.90
39957;DHT22;48483;44.640;7.494;2024-02-23T00:16:23;10.10;99.90
39957;DHT22;48483;44.640;7.494;2024-02-23T00:18:49;10.10;99.90
39957;DHT22;48483;44.640;7.494;2024-02-23T00:21:16;10.20;99.90
39957;DHT22;48483;44.640;7.494;2024-02-23T00:23:43;10.10;99.90
39957;DHT22;48483;44.640;7.494;2024-02-23T00:26:09;10.10;99.90
39957;DHT22;48483;44.640;7.494;2024-02-23T00:28:36;10.20;99.90
39957;DHT22;48483;44.640;7.494;2024-02-23T00:31:03;10.10;99.90
39957;DHT22;48483;44.640;7.494;2024-02-23T00:33:31;10.10;99.90
39957;DHT22;48483;44.640;7.494;2024-02-23T00:35:57;10.20;99.90
39957;DHT22;48483;44.640;7.494;2024-02-23T00:38:24;10.20;99.90
39957;DHT22;48483;44.640;7.494;2024-02-23T00:40:51;10.10;99.90
39957;DHT22;48483;44.640;7.494;2024-02-23T00:43:19;10.00;99.90
39957;DHT22;48483;44.640;7.494;2024-02-23T00:45:46;10.00;99.90
39957;DHT22;48483;44.640;7.494;2024-02-23T00:48:12;10.00;99.90
39957;DHT22;48483;44.640;7.494;2024-02-23T00:50:41;10.00;99.90
39957;DHT22;48483;44.640;7.494;2024-02-23T00:53:08;10.00;99.90
39957;DHT22;48483;44.640;7.494;2024-02-23T00:55:34;10.00;99.90
39957;DHT22;48483;44.640;7.494;2024-02-23T00:58:01;10.00;99.90
39957;DHT22;48483;44.640;7.494;2024-02-23T01:00:28;10.00;99.90
39957;DHT22;48483;44.640;7.494;2024-02-23T01:02:55;9.90;99.90
39957;DHT22;48483;44.640;7.494;2024-02-23T01:05:22;9.90;99.90
39957;DHT22;48483;44.640;7.494;2024-02-23T01:07:49;9.90;99.90
39957;DHT22;48483;44.640;7.494;2024-02-23T01:10:16;9.90;99.90
39957;DHT22;48483;44.640;7.494;2024-02-23T01:12:43;9.90;99.90
39957;DHT22;48483;44.640;7.494;2024-02-23T01:15:09;9.90;99.90
39957;DHT22;48483;44.640;7.494;2024-02-23T01:17:36;9.90;99.90
39957;DHT22;48483;44.640;7.494;2024-02-23T01:20:04;9.90;99.90
39957;DHT22;48483;44.640;7.494;2024-02-23T01:22:31;9.90;99.90
39957;DHT22;48483;44.640;7.494;2024-02-23T01:24:59;9.90;99.90
39957;DHT22;48483;44.640;7.494;2024-02-23T01:27:26;9.90;99.90
39957;DHT22;48483;44.640;7.494;2024-02-23T01:29:52;9.90;99.90
39957;DHT22;48483;44.640;7.494;2024-02-23T01:32:19;9.80;99.90
39957;DHT22;48483;44.640;7.494;2024-02-23T01:34:45;9.80;99.90
39957;DHT22;48483;44.640;7.494;2024-02-23T01:37:12;9.80;99.90
39957;DHT22;48483;44.640;7.494;2024-02-23T01:39:38;9.70;99.90
39957;DHT22;48483;44.640;7.494;2024-02-23T01:42:07;9.80;99.90
39957;DHT22;48483;44.640;7.494;2024-02-23T01:44:34;9.80;99.90
39957;DHT22;48483;44.640;7.494;2024-02-23T01:47:00;9.80;99.90
39957;DHT22;48483;44.640;7.494;2024-02-23T01:49:27;9.80;99.90
39957;DHT22;48483;44.640;7.494;2024-02-23T01:51:58;9.80;99.90
39957;DHT22;48483;44.640;7.494;2024-02-23T01:54:27;9.80;99.90
39957;DHT22;48483;44.640;7.494;2024-02-23T01:56:55;9.70;99.90
39957;DHT22;48483;44.640;7.494;2024-02-23T01:59:25;9.80;99.90
39957;DHT22;48483;44.640;7.494;2024-02-23T02:01:52;9.80;99.90
39957;DHT22;48483;44.640;7.494;2024-02-23T02:04:19;9.70;99.90
39957;DHT22;48483;44.640;7.494;2024-02-23T02:06:46;9.70;99.90
39957;DHT22;48483;44.640;7.494;2024-02-23T02:09:14;9.70;99.90
39957;DHT22;48483;44.640;7.494;2024-02-23T02:11:45;9.70;99.90
39957;DHT22;48483;44.640;7.494;2024-02-23T02:14:12;9.70;99.90
39957;DHT22;48483;44.640;7.494;2024-02-23T02:16:40;9.70;99.90
39957;DHT22;48483;44.640;7.494;2024-02-23T02:19:07;9.70;99.90
39957;DHT22;48483;44.640;7.494;2024-02-23T02:21:34;9.70;99.90
39957;DHT22;48483;44.640;7.494;2024-02-23T02:24:01;9.70;99.90
39957;DHT22;48483;44.640;7.494;2024-02-23T02:26:28;9.70;99.90
39957;DHT22;48483;44.640;7.494;2024-02-23T02:28:54;9.70;99.90
39957;DHT22;48483;44.640;7.494;2024-02-23T02:31:21;9.70;99.90
39957;DHT22;48483;44.640;7.494;2024-02-23T02:33:49;9.60;99.90
39957;DHT22;48483;44.640;7.494;2024-02-23T02:36:16;9.70;99.90
39957;DHT22;48483;44.640;7.494;2024-02-23T02:38:42;9.70;99.90
39957;DHT22;48483;44.640;7.494;2024-02-23T02:41:09;9.70;99.90
39957;DHT22;48483;44.640;7.494;2024-02-23T02:43:36;9.60;99.90
39957;DHT22;48483;44.640;7.494;2024-02-23T02:46:03;9.60;99.90
39957;DHT22;48483;44.640;7.494;2024-02-23T02:48:29;9.60;99.90
39957;DHT22;48483;44.640;7.494;2024-02-23T02:50:57;9.60;99.90
39957;DHT22;48483;44.640;7.494;2024-02-23T02:53:24;9.60;99.90
39957;DHT22;48483;44.640;7.494;2024-02-23T02:55:50;9.60;99.90
39957;DHT22;48483;44.640;7.494;2024-02-23T02:58:17;9.70;99.90
39957;DHT22;48483;44.640;7.494;2024-02-23T03:00:44;9.60;99.90
39957;DHT22;48483;44.640;7.494;2024-02-23T03:03:10;9.60;99.90
39957;DHT22;48483;44.640;7.494;2024-02-23T03:05:38;9.60;99.90
39957;DHT22;48483;44.640;7.494;2024-02-23T03:08:06;9.60;99.90
39957;DHT22;48483;44.640;7.494;2024-02-23T03:10:33;9.50;99.90
39957;DHT22;48483;44.640;7.494;2024-02-23T03:13:00;9.60;99.90
39957;DHT22;48483;44.640;7.494;2024-02-23T03:15:26;9.50;99.90
39957;DHT22;48483;44.640;7.494;2024-02-23T03:17:55;9.60;99.90
39957;DHT22;48483;44.640;7.494;2024-02-23T03:20:22;9.60;99.90
39957;DHT22;48483;44.640;7.494;2024-02-23T03:22:48;9.50;99.90
39957;DHT22;48483;44.640;7.494;2024-02-23T03:25:16;9.50;99.90
39957;DHT22;48483;44.640;7.494;2024-02-23T03:27:43;9.60;99.90
39957;DHT22;48483;44.640;7.494;2024-02-23T03:30:10;9.50;99.90
39957;DHT22;48483;44.640;7.494;2024-02-23T03:32:37;9.50;99.90
39957;DHT22;48483;44.640;7.494;2024-02-23T03:35:06;9.50;99.90
39957;DHT22;48483;44.640;7.494;2024-02-23T03:37:33;9.50;99.90
39957;DHT22;48483;44.640;7.494;2024-02-23T03:40:00;9.50;99.90
39957;DHT22;48483;44.640;7.494;2024-02-23T03:42:28;9.50;99.90
39957;DHT22;48483;44.640;7.494;2024-02-23T03:44:55;9.50;99.90
39957;DHT22;48483;44.640;7.494;2024-02-23T03:47:21;9.50;99.90
39957;DHT22;48483;44.640;7.494;2024-02-23T03:49:48;9.50;99.90
39957;DHT22;48483;44.640;7.494;2024-02-23T03:52:15;9.50;99.90
39957;DHT22;48483;44.640;7.494;2024-02-23T03:54:42;9.50;99.90
39957;DHT22;48483;44.640;7.494;2024-02-23T03:57:09;9.50;99.90
39957;DHT22;48483;44.640;7.494;2024-02-23T03:59:37;9.50;99.90
39957;DHT22;48483;44.640;7.494;2024-02-23T04:02:04;9.50;99.90
39957;DHT22;48483;44.640;7.494;2024-02-23T04:04:31;9.50;99.90
39957;DHT22;48483;44.640;7.494;2024-02-23T04:06:57;9.40;99.90
39957;DHT22;48483;44.640;7.494;2024-02-23T04:09:24;9.40;99.90
39957;DHT22;48483;44.640;7.494;2024-02-23T04:11:51;9.40;99.90
39957;DHT22;48483;44.640;7.494;2024-02-23T04:14:17;9.40;99.90
39957;DHT22;48483;44.640;7.494;2024-02-23T04:16:45;9.40;99.90
39957;DHT22;48483;44.640;7.494;2024-02-23T04:19:12;9.40;99.90
39957;DHT22;48483;44.640;7.494;2024-02-23T04:21:39;9.40;99.90
39957;DHT22;48483;44.640;7.494;2024-02-23T04:24:06;9.40;99.90
39957;DHT22;48483;44.640;7.494;2024-02-23T04:26:33;9.40;99.90
39957;DHT22;48483;44.640;7.494;2024-02-23T04:29:00;9.40;99.90
39957;DHT22;48483;44.640;7.494;2024-02-23T04:31:26;9.40;99.90
39957;DHT22;48483;44.640;7.494;2024-02-23T04:33:54;9.40;99.90
39957;DHT22;48483;44.640;7.494;2024-02-23T04:36:21;9.40;99.90
39957;DHT22;48483;44.640;7.494;2024-02-23T04:38:48;9.40;99.90
39957;DHT22;48483;44.640;7.494;2024-02-23T04:41:15;9.40;99.90
39957;DHT22;48483;44.640;7.494;2024-02-23T04:43:45;9.40;99.90
39957;DHT22;48483;44.640;7.494;2024-02-23T04:46:12;9.40;99.90
39957;DHT22;48483;44.640;7.494;2024-02-23T04:48:39;9.40;99.90
39957;DHT22;48483;44.640;7.494;2024-02-23T04:51:07;9.40;99.90
39957;DHT22;48483;44.640;7.494;2024-02-23T04:53:37;9.40;99.90
39957;DHT22;48483;44.640;7.494;2024-02-23T04:56:04;9.40;99.90
39957;DHT22;48483;44.640;7.494;2024-02-23T04:58:31;9.40;99.90
39957;DHT22;48483;44.640;7.494;2024-02-23T05:00:57;9.40;99.90
39957;DHT22;48483;44.640;7.494;2024-02-23T05:03:24;9.40;99.90
39957;DHT22;48483;44.640;7.494;2024-02-23T05:05:51;9.40;99.90
39957;DHT22;48483;44.640;7.494;2024-02-23T05:08:21;9.40;99.90
39957;DHT22;48483;44.640;7.494;2024-02-23T05:10:50;9.40;99.90
39957;DHT22;48483;44.640;7.494;2024-02-23T05:13:17;9.40;99.90
39957;DHT22;48483;44.640;7.494;2024-02-23T05:15:43;9.40;99.90
39957;DHT22;48483;44.640;7.494;2024-02-23T05:18:10;9.40;99.90
39957;DHT22;48483;44.640;7.494;2024-02-23T05:20:37;9.40;99.90
39957;DHT22;48483;44.640;7.494;2024-02-23T05:23:03;9.40;99.90
39957;DHT22;48483;44.640;7.494;2024-02-23T05:25:32;9.50;99.90
39957;DHT22;48483;44.640;7.494;2024-02-23T05:27:58;9.40;99.90
39957;DHT22;48483;44.640;7.494;2024-02-23T05:30:25;9.50;99.90
39957;DHT22;48483;44.640;7.494;2024-02-23T05:32:53;9.50;99.90
39957;DHT22;48483;44.640;7.494;2024-02-23T05:35:20;9.50;99.90
39957;DHT22;48483;44.640;7.494;2024-02-23T05:37:46;9.50;99.90
39957;DHT22;48483;44.640;7.494;2024-02-23T05:40:13;9.50;99.90
39957;DHT22;48483;44.640;7.494;2024-02-23T05:42:42;9.50;99.90
39957;DHT22;48483;44.640;7.494;2024-02-23T05:45:09;9.50;99.90
39957;DHT22;48483;44.640;7.494;2024-02-23T05:47:36;9.50;99.90
39957;DHT22;48483;44.640;7.494;2024-02-23T05:50:04;9.50;99.90
39957;DHT22;48483;44.640;7.494;2024-02-23T05:52:31;9.50;99.90
39957;DHT22;48483;44.640;7.494;2024-02-23T05:54:58;9.40;99.90
39957;DHT22;48483;44.640;7.494;2024-02-23T05:57:26;9.40;99.90
39957;DHT22;48483;44.640;7.494;2024-02-23T05:59:54;9.50;99.90
39957;DHT22;48483;44.640;7.494;2024-02-23T06:02:24;9.50;99.90
39957;DHT22;48483;44.640;7.494;2024-02-23T06:04:51;9.50;99.90
39957;DHT22;48483;44.640;7.494;2024-02-23T06:07:17;9.50;99.90
39957;DHT22;48483;44.640;7.494;2024-02-23T06:09:44;9.50;99.90
39957;DHT22;48483;44.640;7.494;2024-02-23T06:12:11;9.40;99.90
39957;DHT22;48483;44.640;7.494;2024-02-23T06:14:37;9.50;99.90
39957;DHT22;48483;44.640;7.494;2024-02-23T06:17:05;9.40;99.90
39957;DHT22;48483;44.640;7.494;2024-02-23T06:19:34;9.50;99.90
39957;DHT22;48483;44.640;7.494;2024-02-23T06:22:01;9.40;99.90
39957;DHT22;48483;44.640;7.494;2024-02-23T06:24:28;9.40;99.90
39957;DHT22;48483;44.640;7.494;2024-02-23T06:26:54;9.40;99.90
39957;DHT22;48483;44.640;7.494;2024-02-23T06:29:21;9.40;99.90
39957;DHT22;48483;44.640;7.494;2024-02-23T06:31:48;9.40;99.90
39957;DHT22;48483;44.640;7.494;2024-02-23T06:34:17;9.40;99.90
39957;DHT22;48483;44.640;7.494;2024-02-23T06:36:43;9.40;99.90
39957;DHT22;48483;44.640;7.494;2024-02-23T06:39:10;9.30;99.90
39957;DHT22;48483;44.640;7.494;2024-02-23T06:41:37;9.30;99.90
39957;DHT22;48483;44.640;7.494;2024-02-23T06:44:05;9.30;99.90
39957;DHT22;48483;44.640;7.494;2024-02-23T06:46:32;9.30;99.90
39957;DHT22;48483;44.640;7.494;2024-02-23T06:48:58;9.40;99.90
39957;DHT22;48483;44.640;7.494;2024-02-23T06:51:26;9.40;99.90
39957;DHT22;48483;44.640;7.494;2024-02-23T06:53:53;9.40;99.90
39957;DHT22;48483;44.640;7.494;2024-02-23T06:56:20;9.30;99.90
39957;DHT22;48483;44.640;7.494;2024-02-23T06:58:46;9.30;99.90
39957;DHT22;48483;44.640;7.494;2024-02-23T07:01:13;9.30;99.90
39957;DHT22;48483;44.640;7.494;2024-02-23T07:03:40;9.30;99.90
39957;DHT22;48483;44.640;7.494;2024-02-23T07:06:09;9.40;99.90
39957;DHT22;48483;44.640;7.494;2024-02-23T07:08:39;9.40;99.90
39957;DHT22;48483;44.640;7.494;2024-02-23T07:11:06;9.40;99.90
39957;DHT22;48483;44.640;7.494;2024-02-23T07:13:33;9.40;99.90
39957;DHT22;48483;44.640;7.494;2024-02-23T07:16:00;9.40;99.90
39957;DHT22;48483;44.640;7.494;2024-02-23T07:18:27;9.40;99.90
39957;DHT22;48483;44.640;7.494;2024-02-23T07:20:53;9.40;99.90
39957;DHT22;48483;44.640;7.494;2024-02-23T07:23:20;9.40;99.90
39957;DHT22;48483;44.640;7.494;2024-02-23T07:25:48;9.40;99.90
39957;DHT22;48483;44.640;7.494;2024-02-23T07:28:17;9.40;99.90
39957;DHT22;48483;44.640;7.494;2024-02-23T07:30:46;9.30;99.90
39957;DHT22;48483;44.640;7.494;2024-02-23T07:33:13;9.40;99.90
39957;DHT22;48483;44.640;7.494;2024-02-23T07:35:40;9.30;99.90
39957;DHT22;48483;44.640;7.494;2024-02-23T07:38:06;9.30;99.90
39957;DHT22;48483;44.640;7.494;2024-02-23T07:40:33;9.40;99.90
39957;DHT22;48483;44.640;7.494;2024-02-23T07:43:01;9.30;99.90
39957;DHT22;48483;44.640;7.494;2024-02-23T07:45:27;9.30;99.90
39957;DHT22;48483;44.640;7.494;2024-02-23T07:47:54;9.30;99.90
39957;DHT22;48483;44.640;7.494;2024-02-23T07:50:21;9.40;99.90
39957;DHT22;48483;44.640;7.494;2024-02-23T07:52:47;9.40;99.90
39957;DHT22;48483;44.640;7.494;2024-02-23T07:55:14;9.40;99.90
39957;DHT22;48483;44.640;7.494;2024-02-23T07:57:41;9.30;99.90
39957;DHT22;48483;44.640;7.494;2024-02-23T08:00:10;9.40;99.90
39957;DHT22;48483;44.640;7.494;2024-02-23T08:02:39;9.30;99.90
39957;DHT22;48483;44.640;7.494;2024-02-23T08:05:07;9.30;99.90
39957;DHT22;48483;44.640;7.494;2024-02-23T08:07:33;9.30;99.90
39957;DHT22;48483;44.640;7.494;2024-02-23T08:10:00;9.30;99.90
39957;DHT22;48483;44.640;7.494;2024-02-23T08:12:27;9.30;99.90
39957;DHT22;48483;44.640;7.494;2024-02-23T08:14:53;9.40;99.90
39957;DHT22;48483;44.640;7.494;2024-02-23T08:17:21;9.40;99.90
39957;DHT22;48483;44.640;7.494;2024-02-23T08:19:48;9.40;99.90
39957;DHT22;48483;44.640;7.494;2024-02-23T08:22:15;9.40;99.90
39957;DHT22;48483;44.640;7.494;2024-02-23T08:24:41;9.40;99.90
39957;DHT22;48483;44.640;7.494;2024-02-23T08:27:08;9.40;99.90
39957;DHT22;48483;44.640;7.494;2024-02-23T08:29:37;9.40;99.90
39957;DHT22;48483;44.640;7.494;2024-02-23T08:32:05;9.40;99.90
39957;DHT22;48483;44.640;7.494;2024-02-23T08:34:34;9.40;99.90
39957;DHT22;48483;44.640;7.494;2024-02-23T08:37:00;9.40;99.90
39957;DHT22;48483;44.640;7.494;2024-02-23T08:39:28;9.40;99.90
39957;DHT22;48483;44.640;7.494;2024-02-23T08:41:55;9.40;99.90
39957;DHT22;48483;44.640;7.494;2024-02-23T08:44:22;9.40;99.90
39957;DHT22;48483;44.640;7.494;2024-02-23T08:46:48;9.40;99.90
39957;DHT22;48483;44.640;7.494;2024-02-23T08:49:15;9.40;99.90
39957;DHT22;48483;44.640;7.494;2024-02-23T08:51:43;9.40;99.90
39957;DHT22;48483;44.640;7.494;2024-02-23T08:54:09;9.40;99.90
39957;DHT22;48483;44.640;7.494;2024-02-23T08:56:40;9.40;99.90
39957;DHT22;48483;44.640;7.494;2024-02-23T08:59:08;9.50;99.90
39957;DHT22;48483;44.640;7.494;2024-02-23T09:01:35;9.50;99.90
39957;DHT22;48483;44.640;7.494;2024-02-23T09:04:02;9.60;99.90
39957;DHT22;48483;44.640;7.494;2024-02-23T09:06:29;9.60;99.90
39957;DHT22;48483;44.640;7.494;2024-02-23T09:08:57;9.60;99.90
39957;DHT22;48483;44.640;7.494;2024-02-23T09:11:23;9.50;99.90
39957;DHT22;48483;44.640;7.494;2024-02-23T09:13:50;9.50;99.90
39957;DHT22;48483;44.640;7.494;2024-02-23T09:16:17;9.50;99.90
39957;DHT22;48483;44.640;7.494;2024-02-23T09:18:45;9.50;99.90
39957;DHT22;48483;44.640;7.494;2024-02-23T09:21:12;9.50;99.90
39957;DHT22;48483;44.640;7.494;2024-02-23T09:23:38;9.60;99.90
39957;DHT22;48483;44.640;7.494;2024-02-23T09:26:10;9.60;99.90
39957;DHT22;48483;44.640;7.494;2024-02-23T09:28:38;9.60;99.90
39957;DHT22;48483;44.640;7.494;2024-02-23T09:31:04;9.60;99.90
39957;DHT22;48483;44.640;7.494;2024-02-23T09:33:31;9.60;99.90
39957;DHT22;48483;44.640;7.494;2024-02-23T09:35:58;9.70;99.90
39957;DHT22;48483;44.640;7.494;2024-02-23T09:38:25;9.60;99.90
39957;DHT22;48483;44.640;7.494;2024-02-23T09:40:52;9.70;99.90
39957;DHT22;48483;44.640;7.494;2024-02-23T09:43:21;9.80;99.90
39957;DHT22;48483;44.640;7.494;2024-02-23T09:45:51;9.80;99.90
39957;DHT22;48483;44.640;7.494;2024-02-23T09:48:19;9.80;99.90
39957;DHT22;48483;44.640;7.494;2024-02-23T09:50:47;9.90;99.90
39957;DHT22;48483;44.640;7.494;2024-02-23T09:53:14;9.90;99.90
39957;DHT22;48483;44.640;7.494;2024-02-23T09:55:43;10.00;99.90
39957;DHT22;48483;44.640;7.494;2024-02-23T09:58:13;10.00;99.90
39957;DHT22;48483;44.640;7.494;2024-02-23T10:00:42;10.00;99.90
39957;DHT22;48483;44.640;7.494;2024-02-23T10:03:10;10.00;99.90
39957;DHT22;48483;44.640;7.494;2024-02-23T10:05:36;10.00;99.90
39957;DHT22;48483;44.640;7.494;2024-02-23T10:08:05;10.10;99.90
39957;DHT22;48483;44.640;7.494;2024-02-23T10:10:33;10.00;99.90
39957;DHT22;48483;44.640;7.494;2024-02-23T10:13:00;10.10;99.90
39957;DHT22;48483;44.640;7.494;2024-02-23T10:15:29;10.10;99.90
39957;DHT22;48483;44.640;7.494;2024-02-23T10:17:58;10.10;99.90
39957;DHT22;48483;44.640;7.494;2024-02-23T10:20:25;10.10;99.90
39957;DHT22;48483;44.640;7.494;2024-02-23T10:22:52;10.20;99.90
39957;DHT22;48483;44.640;7.494;2024-02-23T10:25:20;10.20;99.90
39957;DHT22;48483;44.640;7.494;2024-02-23T10:27:47;10.20;99.90
39957;DHT22;48483;44.640;7.494;2024-02-23T10:30:14;10.20;99.90
39957;DHT22;48483;44.640;7.494;2024-02-23T10:32:44;10.10;99.90
39957;DHT22;48483;44.640;7.494;2024-02-23T10:35:15;10.10;99.90
39957;DHT22;48483;44.640;7.494;2024-02-23T10:37:48;10.00;99.90
39957;DHT22;48483;44.640;7.494;2024-02-23T10:40:16;10.00;99.90
39957;DHT22;48483;44.640;7.494;2024-02-23T10:42:44;10.20;99.90
39957;DHT22;48483;44.640;7.494;2024-02-23T10:45:15;10.40;99.90
39957;DHT22;48483;44.640;7.494;2024-02-23T10:47:42;10.40;99.90
39957;DHT22;48483;44.640;7.494;2024-02-23T10:50:10;10.30;99.90
39957;DHT22;48483;44.640;7.494;2024-02-23T10:52:42;10.30;99.90
39957;DHT22;48483;44.640;7.494;2024-02-23T10:55:09;10.20;99.90
39957;DHT22;48483;44.640;7.494;2024-02-23T10:57:36;10.30;99.90
39957;DHT22;48483;44.640;7.494;2024-02-23T11:00:04;10.40;99.90
39957;DHT22;48483;44.640;7.494;2024-02-23T11:02:38;10.40;99.90
39957;DHT22;48483;44.640;7.494;2024-02-23T11:05:06;10.40;99.90
39957;DHT22;48483;44.640;7.494;2024-02-23T11:07:38;10.50;99.90
39957;DHT22;48483;44.640;7.494;2024-02-23T11:10:07;10.60;99.90
39957;DHT22;48483;44.640;7.494;2024-02-23T11:12:35;10.60;99.90
39957;DHT22;48483;44.640;7.494;2024-02-23T11:15:03;10.70;99.90
39957;DHT22;48483;44.640;7.494;2024-02-23T11:17:32;10.80;99.90
39957;DHT22;48483;44.640;7.494;2024-02-23T11:20:02;10.90;99.90
39957;DHT22;48483;44.640;7.494;2024-02-23T11:22:31;10.90;99.90
39957;DHT22;48483;44.640;7.494;2024-02-23T11:25:00;11.00;99.90
39957;DHT22;48483;44.640;7.494;2024-02-23T11:27:32;11.00;99.90
39957;DHT22;48483;44.640;7.494;2024-02-23T11:30:01;11.10;99.90
39957;DHT22;48483;44.640;7.494;2024-02-23T11:32:37;11.10;99.90
39957;DHT22;48483;44.640;7.494;2024-02-23T11:35:06;11.20;99.90
39957;DHT22;48483;44.640;7.494;2024-02-23T11:37:45;11.30;99.90
39957;DHT22;48483;44.640;7.494;2024-02-23T11:40:12;11.20;99.90
39957;DHT22;48483;44.640;7.494;2024-02-23T11:42:41;11.20;99.90
39957;DHT22;48483;44.640;7.494;2024-02-23T11:45:11;11.30;99.90
39957;DHT22;48483;44.640;7.494;2024-02-23T11:47:38;11.30;99.90
39957;DHT22;48483;44.640;7.494;2024-02-23T11:50:08;11.30;99.90
39957;DHT22;48483;44.640;7.494;2024-02-23T11:52:34;11.40;99.90
39957;DHT22;48483;44.640;7.494;2024-02-23T11:55:01;11.40;99.90
39957;DHT22;48483;44.640;7.494;2024-02-23T11:57:29;11.50;99.90
39957;DHT22;48483;44.640;7.494;2024-02-23T11:59:57;11.50;99.90
39957;DHT22;48483;44.640;7.494;2024-02-23T12:02:24;11.50;99.90
39957;DHT22;48483;44.640;7.494;2024-02-23T12:04:50;11.50;99.90
39957;DHT22;48483;44.640;7.494;2024-02-23T12:07:17;11.50;99.90
39957;DHT22;48483;44.640;7.494;2024-02-23T12:09:45;11.60;99.90
39957;DHT22;48483;44.640;7.494;2024-02-23T12:12:12;11.60;99.90
39957;DHT22;48483;44.640;7.494;2024-02-23T12:14:39;11.70;99.90
39957;DHT22;48483;44.640;7.494;2024-02-23T12:17:09;11.60;99.90
39957;DHT22;48483;44.640;7.494;2024-02-23T12:19:38;11.60;99.90
39957;DHT22;48483;44.640;7.494;2024-02-23T12:22:05;11.70;99.90
39957;DHT22;48483;44.640;7.494;2024-02-23T12:24:32;11.80;99.90
39957;DHT22;48483;44.640;7.494;2024-02-23T12:26:59;11.80;99.90
39957;DHT22;48483;44.640;7.494;2024-02-23T12:29:25;11.80;99.90
39957;DHT22;48483;44.640;7.494;2024-02-23T12:32:03;11.80;99.90
39957;DHT22;48483;44.640;7.494;2024-02-23T12:34:31;11.90;99.90
39957;DHT22;48483;44.640;7.494;2024-02-23T12:36:58;11.80;99.90
39957;DHT22;48483;44.640;7.494;2024-02-23T12:39:25;11.80;99.90
39957;DHT22;48483;44.640;7.494;2024-02-23T12:41:51;11.80;99.90
39957;DHT22;48483;44.640;7.494;2024-02-23T12:44:18;11.80;99.90
39957;DHT22;48483;44.640;7.494;2024-02-23T12:46:45;11.90;99.90
39957;DHT22;48483;44.640;7.494;2024-02-23T12:49:12;12.00;99.90
39957;DHT22;48483;44.640;7.494;2024-02-23T12:51:40;12.00;99.90
39957;DHT22;48483;44.640;7.494;2024-02-23T12:54:07;12.00;99.90
39957;DHT22;48483;44.640;7.494;2024-02-23T12:56:34;12.10;99.90
39957;DHT22;48483;44.640;7.494;2024-02-23T12:59:00;12.10;99.90
39957;DHT22;48483;44.640;7.494;2024-02-23T13:01:27;12.00;99.90
39957;DHT22;48483;44.640;7.494;2024-02-23T13:03:53;12.10;99.90
39957;DHT22;48483;44.640;7.494;2024-02-23T13:06:20;12.00;99.90
39957;DHT22;48483;44.640;7.494;2024-02-23T13:08:48;11.90;99.90
39957;DHT22;48483;44.640;7.494;2024-02-23T13:11:15;12.00;99.90
39957;DHT22;48483;44.640;7.494;2024-02-23T13:13:41;11.90;99.90
39957;DHT22;48483;44.640;7.494;2024-02-23T13:16:08;11.80;99.90
39957;DHT22;48483;44.640;7.494;2024-02-23T13:18:34;11.80;99.90
39957;DHT22;48483;44.640;7.494;2024-02-23T13:21:01;11.70;99.90
39957;DHT22;48483;44.640;7.494;2024-02-23T13:23:28;11.70;99.90
39957;DHT22;48483;44.640;7.494;2024-02-23T13:25:55;11.80;99.90
39957;DHT22;48483;44.640;7.494;2024-02-23T13:28:22;12.00;99.90
39957;DHT22;48483;44.640;7.494;2024-02-23T13:30:49;12.10;99.90
39957;DHT22;48483;44.640;7.494;2024-02-23T13:33:15;12.10;99.90
39957;DHT22;48483;44.640;7.494;2024-02-23T13:35:42;12.00;99.90
39957;DHT22;48483;44.640;7.494;2024-02-23T13:38:09;12.10;99.90
39957;DHT22;48483;44.640;7.494;2024-02-23T13:40:36;12.00;99.90
39957;DHT22;48483;44.640;7.494;2024-02-23T13:43:04;12.00;99.90
39957;DHT22;48483;44.640;7.494;2024-02-23T13:45:31;11.80;99.90
39957;DHT22;48483;44.640;7.494;2024-02-23T13:47:58;11.90;99.90
39957;DHT22;48483;44.640;7.494;2024-02-23T13:50:25;11.90;99.90
39957;DHT22;48483;44.640;7.494;2024-02-23T13:52:52;11.90;99.90
39957;DHT22;48483;44.640;7.494;2024-02-23T13:55:19;11.90;99.90
39957;DHT22;48483;44.640;7.494;2024-02-23T13:57:48;12.00;99.90
39957;DHT22;48483;44.640;7.494;2024-02-23T14:00:18;12.10;99.90
39957;DHT22;48483;44.640;7.494;2024-02-23T14:02:46;12.10;99.90
39957;DHT22;48483;44.640;7.494;2024-02-23T14:05:13;12.00;99.90
39957;DHT22;48483;44.640;7.494;2024-02-23T14:07:39;12.00;99.90
39957;DHT22;48483;44.640;7.494;2024-02-23T14:10:07;11.90;99.90
39957;DHT22;48483;44.640;7.494;2024-02-23T14:12:34;12.10;99.90
39957;DHT22;48483;44.640;7.494;2024-02-23T14:15:01;12.10;99.90
39957;DHT22;48483;44.640;7.494;2024-02-23T14:17:29;12.20;99.90
39957;DHT22;48483;44.640;7.494;2024-02-23T14:19:56;12.20;99.90
39957;DHT22;48483;44.640;7.494;2024-02-23T14:22:22;12.20;99.90
39957;DHT22;48483;44.640;7.494;2024-02-23T14:24:49;12.20;99.90
39957;DHT22;48483;44.640;7.494;2024-02-23T14:27:16;12.20;99.90
39957;DHT22;48483;44.640;7.494;2024-02-23T14:29:42;12.20;99.90
39957;DHT22;48483;44.640;7.494;2024-02-23T14:32:16;12.30;99.90
39957;DHT22;48483;44.640;7.494;2024-02-23T14:34:44;12.40;99.90
39957;DHT22;48483;44.640;7.494;2024-02-23T14:37:12;12.30;99.90
39957;DHT22;48483;44.640;7.494;2024-02-23T14:39:38;12.40;99.90
39957;DHT22;48483;44.640;7.494;2024-02-23T14:42:06;12.30;99.90
39957;DHT22;48483;44.640;7.494;2024-02-23T14:44:35;12.40;99.90
39957;DHT22;48483;44.640;7.494;2024-02-23T14:47:02;12.30;99.90
39957;DHT22;48483;44.640;7.494;2024-02-23T14:49:29;12.40;99.90
39957;DHT22;48483;44.640;7.494;2024-02-23T14:51:57;12.30;99.90
39957;DHT22;48483;44.640;7.494;2024-02-23T14:54:24;12.20;99.90
39957;DHT22;48483;44.640;7.494;2024-02-23T14:56:52;12.10;99.90
39957;DHT22;48483;44.640;7.494;2024-02-23T14:59:18;12.10;99.90
39957;DHT22;48483;44.640;7.494;2024-02-23T15:01:45;12.20;99.90
39957;DHT22;48483;44.640;7.494;2024-02-23T15:04:11;12.30;99.90
39957;DHT22;48483;44.640;7.494;2024-02-23T15:06:38;12.30;99.90
39957;DHT22;48483;44.640;7.494;2024-02-23T15:09:06;12.30;99.90
39957;DHT22;48483;44.640;7.494;2024-02-23T15:11:33;12.20;99.90
39957;DHT22;48483;44.640;7.494;2024-02-23T15:14:00;12.10;99.90
39957;DHT22;48483;44.640;7.494;2024-02-23T15:16:27;12.10;99.90
39957;DHT22;48483;44.640;7.494;2024-02-23T15:18:54;12.00;99.90
39957;DHT22;48483;44.640;7.494;2024-02-23T15:21:21;11.90;99.90
39957;DHT22;48483;44.640;7.494;2024-02-23T15:23:47;11.90;99.90
39957;DHT22;48483;44.640;7.494;2024-02-23T15:26:15;12.00;99.90
39957;DHT22;48483;44.640;7.494;2024-02-23T15:28:42;11.90;99.90
39957;DHT22;48483;44.640;7.494;2024-02-23T15:31:08;11.80;99.90
39957;DHT22;48483;44.640;7.494;2024-02-23T15:33:35;11.80;99.90
39957;DHT22;48483;44.640;7.494;2024-02-23T15:36:05;11.90;99.90
39957;DHT22;48483;44.640;7.494;2024-02-23T15:38:34;12.00;99.90
39957;DHT22;48483;44.640;7.494;2024-02-23T15:41:02;12.00;99.90